createdAt,value
2022-11-29T00:01:53.412Z,87.54
2022-11-29T00:04:38.980Z,87.67
2022-11-29T00:07:24.462Z,87.57
2022-11-29T00:10:10.190Z,87.76
2022-11-29T00:12:55.876Z,87.61
2022-11-29T00:15:41.619Z,87.41
2022-11-29T00:18:27.056Z,87.91
2022-11-29T00:21:12.773Z,87.96
2022-11-29T00:23:58.255Z,87.66
2022-11-29T00:26:43.835Z,87.60
2022-11-29T00:29:30.303Z,87.59
2022-11-29T00:32:15.787Z,87.57
2022-11-29T00:35:06.669Z,87.89
2022-11-29T00:37:55.139Z,87.92
2022-11-29T00:40:40.252Z,87.91
2022-11-29T00:43:25.910Z,87.70
2022-11-29T00:46:12.851Z,87.90
2022-11-29T00:48:58.166Z,87.57
2022-11-29T00:51:43.621Z,87.89
2022-11-29T00:54:29.112Z,87.86
2022-11-29T00:57:14.524Z,87.88
2022-11-29T01:00:00.006Z,87.88
2022-11-29T01:02:45.419Z,87.80
2022-11-29T01:05:32.125Z,87.20
2022-11-29T01:08:17.834Z,87.33
2022-11-29T01:11:12.302Z,87.22
2022-11-29T01:14:00.256Z,87.31
2022-11-29T01:16:45.742Z,87.60
2022-11-29T01:19:31.121Z,88.00
2022-11-29T01:22:16.644Z,88.05
2022-11-29T01:25:02.786Z,87.61
2022-11-29T01:27:48.272Z,87.49
2022-11-29T01:30:33.446Z,87.93
2022-11-29T01:33:18.890Z,87.92
2022-11-29T01:36:05.882Z,87.57
2022-11-29T01:38:52.162Z,87.61
2022-11-29T01:41:37.987Z,87.90
2022-11-29T01:44:23.401Z,87.65
2022-11-29T01:47:11.193Z,87.61
2022-11-29T01:49:56.882Z,87.71
2022-11-29T01:52:42.831Z,87.80
2022-11-29T01:55:28.686Z,87.96
2022-11-29T01:58:15.339Z,88.05
2022-11-29T02:01:01.718Z,87.80
2022-11-29T02:03:47.093Z,87.57
2022-11-29T02:06:33.757Z,87.60
2022-11-29T02:09:21.914Z,88.04
2022-11-29T02:12:20.396Z,87.81
2022-11-29T02:15:54.209Z,87.87
2022-11-29T02:19:00.517Z,88.12
2022-11-29T02:21:54.081Z,87.72
2022-11-29T02:24:51.726Z,88.17
2022-11-29T02:28:16.414Z,88.10
2022-11-29T02:31:24.018Z,88.05
2022-11-29T02:34:12.049Z,87.67
2022-11-29T02:37:16.257Z,87.84
2022-11-29T02:40:26.216Z,88.25
2022-11-29T02:43:33.669Z,88.39
2022-11-29T02:46:34.547Z,88.07
2022-11-29T02:49:26.151Z,88.38
2022-11-29T02:52:21.107Z,88.22
2022-11-29T02:55:15.395Z,87.79
2022-11-29T02:58:06.944Z,87.63
2022-11-29T03:01:10.657Z,87.75
2022-11-29T03:04:22.053Z,87.79
2022-11-29T03:07:13.655Z,88.02
2022-11-29T03:10:07.983Z,87.71
2022-11-29T03:12:55.009Z,88.18
2022-11-29T03:16:09.698Z,88.16
2022-11-29T03:19:14.224Z,88.27
2022-11-29T03:22:08.742Z,88.16
2022-11-29T03:25:00.087Z,88.25
2022-11-29T03:27:59.947Z,87.97
2022-11-29T03:30:59.011Z,88.09
2022-11-29T03:33:50.294Z,88.20
2022-11-29T03:37:04.122Z,88.09
2022-11-29T03:40:14.467Z,88.06
2022-11-29T03:43:05.985Z,87.82
2022-11-29T03:46:02.310Z,88.23
2022-11-29T03:49:01.580Z,88.03
2022-11-29T03:51:58.685Z,87.97
2022-11-29T03:55:05.719Z,87.79
2022-11-29T03:58:03.663Z,87.78
2022-11-29T04:00:49.071Z,88.38
2022-11-29T04:03:52.813Z,87.94
2022-11-29T04:07:00.640Z,88.21
2022-11-29T04:10:27.315Z,88.23
2022-11-29T04:13:31.029Z,88.40
2022-11-29T04:17:04.367Z,88.39
2022-11-29T04:20:11.658Z,88.52
2022-11-29T04:23:34.481Z,88.20
2022-11-29T04:26:53.801Z,88.00
2022-11-29T04:29:55.364Z,88.24
2022-11-29T04:33:02.579Z,88.49
2022-11-29T04:35:48.852Z,88.71
2022-11-29T04:38:46.270Z,88.11
2022-11-29T04:41:52.753Z,88.57
2022-11-29T04:44:53.603Z,88.60
2022-11-29T04:47:52.815Z,88.03
2022-11-29T04:51:12.985Z,88.37
2022-11-29T04:54:14.835Z,88.10
2022-11-29T04:57:17.973Z,88.06
2022-11-29T05:00:12.709Z,87.98
2022-11-29T05:03:16.577Z,88.13
2022-11-29T05:06:19.470Z,88.51
2022-11-29T05:09:24.581Z,88.01
2022-11-29T05:12:36.479Z,88.37
2022-11-29T05:16:14.728Z,88.24
2022-11-29T05:19:26.080Z,88.15
2022-11-29T05:22:25.958Z,88.59
2022-11-29T05:25:17.463Z,88.48
2022-11-29T05:28:17.811Z,88.53
2022-11-29T05:31:37.050Z,88.60
2022-11-29T05:35:04.723Z,88.49
2022-11-29T05:37:57.010Z,88.48
2022-11-29T05:41:01.440Z,88.33
2022-11-29T05:43:52.880Z,88.07
2022-11-29T05:46:58.687Z,88.47
2022-11-29T05:49:58.327Z,88.10
2022-11-29T05:52:59.563Z,88.54
2022-11-29T05:56:10.294Z,88.29
2022-11-29T05:59:08.865Z,88.07
2022-11-29T06:02:09.679Z,88.48
2022-11-29T06:05:22.982Z,88.15
2022-11-29T06:08:22.215Z,88.68
2022-11-29T06:11:30.767Z,88.22
2022-11-29T06:14:41.667Z,88.22
2022-11-29T06:17:35.697Z,88.68
2022-11-29T06:20:48.632Z,88.86
2022-11-29T06:23:59.820Z,88.67
2022-11-29T06:27:15.046Z,88.93
2022-11-29T06:30:13.331Z,89.00
2022-11-29T06:33:15.305Z,88.27
2022-11-29T06:36:22.230Z,88.73
2022-11-29T06:39:09.904Z,88.57
2022-11-29T06:41:56.145Z,88.78
2022-11-29T06:44:42.923Z,88.98
2022-11-29T06:47:36.851Z,88.93
2022-11-29T06:50:43.750Z,88.62
2022-11-29T06:53:41.363Z,89.00
2022-11-29T06:56:47.012Z,88.62
2022-11-29T06:59:50.570Z,88.83
2022-11-29T07:02:45.326Z,89.07
2022-11-29T07:05:33.081Z,88.82
2022-11-29T07:08:21.645Z,88.73
2022-11-29T07:11:07.332Z,88.87
2022-11-29T07:13:53.354Z,88.43
2022-11-29T07:17:03.835Z,88.79
2022-11-29T07:20:09.668Z,89.04
2022-11-29T07:23:01.544Z,88.82
2022-11-29T07:26:16.616Z,89.05
2022-11-29T07:29:19.341Z,88.50
2022-11-29T07:32:10.965Z,88.97
2022-11-29T07:35:16.013Z,89.15
2022-11-29T07:38:20.315Z,89.09
2022-11-29T07:41:10.060Z,88.86
2022-11-29T07:44:34.350Z,88.83
2022-11-29T07:47:19.897Z,88.91
2022-11-29T07:50:05.655Z,88.95
2022-11-29T07:52:51.273Z,88.73
2022-11-29T07:55:37.454Z,88.91
2022-11-29T07:58:23.225Z,88.91
2022-11-29T08:01:08.922Z,88.76
2022-11-29T08:03:54.519Z,88.91
2022-11-29T08:06:39.908Z,88.85
2022-11-29T08:09:25.802Z,88.59
2022-11-29T08:12:11.232Z,88.68
2022-11-29T08:14:57.006Z,88.84
2022-11-29T08:17:42.366Z,88.60
2022-11-29T08:20:27.997Z,88.52
2022-11-29T08:23:15.621Z,88.67
2022-11-29T08:26:02.856Z,88.62
2022-11-29T08:28:52.859Z,88.50
2022-11-29T08:31:38.460Z,88.73
2022-11-29T08:34:24.438Z,88.83
2022-11-29T08:37:10.012Z,88.61
2022-11-29T08:39:56.248Z,88.59
2022-11-29T08:42:41.726Z,88.63
2022-11-29T08:45:27.190Z,88.82
2022-11-29T08:48:14.137Z,88.87
2022-11-29T08:50:59.835Z,88.74
2022-11-29T08:53:51.675Z,88.45
2022-11-29T08:59:45.014Z,88.52
2022-11-29T09:02:30.189Z,88.66
2022-11-29T09:05:16.097Z,88.59
2022-11-29T09:08:01.822Z,88.88
2022-11-29T09:10:47.658Z,88.58
2022-11-29T09:13:32.892Z,88.37
2022-11-29T09:16:20.853Z,88.45
2022-11-29T09:19:07.652Z,88.64
2022-11-29T09:21:53.955Z,88.55
2022-11-29T09:24:39.333Z,88.21
2022-11-29T09:27:24.768Z,88.62
2022-11-29T09:30:10.586Z,88.01
2022-11-29T09:32:56.264Z,88.55
2022-11-29T09:35:42.562Z,88.59
2022-11-29T09:38:28.166Z,88.33
2022-11-29T09:41:32.021Z,88.28
2022-11-29T09:44:26.423Z,88.29
2022-11-29T09:47:41.773Z,88.42
2022-11-29T09:50:40.827Z,88.26
2022-11-29T09:53:34.873Z,87.93
2022-11-29T09:56:42.247Z,88.23
2022-11-29T09:59:35.391Z,88.19
2022-11-29T10:02:45.688Z,87.96
2022-11-29T10:06:00.467Z,88.26
2022-11-29T10:08:57.892Z,87.77
2022-11-29T10:12:19.066Z,88.01
2022-11-29T10:15:22.924Z,88.07
2022-11-29T10:18:23.978Z,88.00
2022-11-29T10:21:35.248Z,88.05
2022-11-29T10:24:24.746Z,88.13
2022-11-29T10:27:19.711Z,88.43
2022-11-29T10:30:07.098Z,88.23
2022-11-29T10:33:00.452Z,88.12
2022-11-29T10:35:49.264Z,88.16
2022-11-29T10:38:34.993Z,87.85
2022-11-29T10:41:22.920Z,87.72
2022-11-29T10:44:14.610Z,87.94
2022-11-29T10:47:09.276Z,87.87
2022-11-29T10:49:56.993Z,87.96
2022-11-29T10:52:42.904Z,87.74
2022-11-29T10:55:45.027Z,87.78
2022-11-29T10:58:31.999Z,87.75
2022-11-29T11:01:18.749Z,88.00
2022-11-29T11:04:09.975Z,87.55
2022-11-29T11:07:01.807Z,87.59
2022-11-29T11:09:49.787Z,88.00
2022-11-29T11:12:39.133Z,88.02
2022-11-29T11:15:24.454Z,87.78
2022-11-29T11:18:21.288Z,87.61
2022-11-29T11:21:11.002Z,87.72
2022-11-29T11:23:58.444Z,87.73
2022-11-29T11:26:45.250Z,87.83
2022-11-29T11:29:40.882Z,87.49
2022-11-29T11:32:26.711Z,87.98
2022-11-29T11:35:31.374Z,87.69
2022-11-29T11:38:17.644Z,87.79
2022-11-29T11:41:07.604Z,87.05
2022-11-29T11:44:00.416Z,87.45
2022-11-29T11:46:56.504Z,87.48
2022-11-29T11:49:47.911Z,87.43
2022-11-29T11:52:50.410Z,87.40
2022-11-29T11:55:53.420Z,87.61
2022-11-29T11:58:49.883Z,87.50
2022-11-29T12:01:39.400Z,87.29
2022-11-29T12:04:37.211Z,87.13
2022-11-29T12:11:07.790Z,87.72
2022-11-29T12:13:57.335Z,87.39
2022-11-29T12:16:50.039Z,87.36
2022-11-29T12:19:46.877Z,87.47
2022-11-29T12:22:46.588Z,87.60
2022-11-29T12:25:58.898Z,87.57
2022-11-29T12:28:46.306Z,87.21
2022-11-29T12:31:59.621Z,87.16
2022-11-29T12:35:29.356Z,86.96
2022-11-29T12:38:21.323Z,87.36
2022-11-29T12:41:35.109Z,87.24
2022-11-29T12:44:41.721Z,87.26
2022-11-29T12:48:03.131Z,87.14
2022-11-29T12:51:33.041Z,86.92
2022-11-29T12:54:44.417Z,87.24
2022-11-29T12:57:57.398Z,87.13
2022-11-29T13:00:56.053Z,87.46
2022-11-29T13:03:57.629Z,87.26
2022-11-29T13:07:17.332Z,87.23
2022-11-29T13:10:42.998Z,86.86
2022-11-29T13:13:38.926Z,87.08
2022-11-29T13:16:49.593Z,87.08
2022-11-29T13:19:42.929Z,86.84
2022-11-29T13:22:54.336Z,86.88
2022-11-29T13:25:42.674Z,86.88
2022-11-29T13:28:33.007Z,87.10
2022-11-29T13:31:23.598Z,87.24
2022-11-29T13:34:20.048Z,87.14
2022-11-29T13:37:36.797Z,87.30
2022-11-29T13:40:48.789Z,86.92
2022-11-29T13:43:51.983Z,87.07
2022-11-29T13:46:57.823Z,87.04
2022-11-29T13:50:04.298Z,87.16
2022-11-29T13:52:49.767Z,86.92
2022-11-29T13:55:48.787Z,86.76
2022-11-29T13:58:37.422Z,86.98
2022-11-29T14:01:24.746Z,86.67
2022-11-29T14:04:41.648Z,87.23
2022-11-29T14:07:27.612Z,87.31
2022-11-29T14:10:29.046Z,87.16
2022-11-29T14:13:16.183Z,87.17
2022-11-29T14:16:05.145Z,86.64
2022-11-29T14:19:04.285Z,86.74
2022-11-29T14:21:58.834Z,86.85
2022-11-29T14:24:57.199Z,86.69
2022-11-29T14:27:54.185Z,86.82
2022-11-29T14:30:42.311Z,86.86
2022-11-29T14:33:28.033Z,87.21
2022-11-29T14:36:33.337Z,86.55
2022-11-29T14:39:31.514Z,87.00
2022-11-29T14:42:18.822Z,87.35
2022-11-29T14:45:26.017Z,86.83
2022-11-29T14:48:30.276Z,87.06
2022-11-29T14:51:18.793Z,87.11
2022-11-29T14:54:19.933Z,87.14
2022-11-29T14:57:45.831Z,86.94
2022-11-29T15:00:37.209Z,87.11
2022-11-29T15:03:50.226Z,87.21
2022-11-29T15:06:43.403Z,87.12
2022-11-29T15:09:34.941Z,87.16
2022-11-29T15:12:27.081Z,86.89
2022-11-29T15:15:31.050Z,86.81
2022-11-29T15:18:29.152Z,86.80
2022-11-29T15:21:31.518Z,86.84
2022-11-29T15:24:18.654Z,87.02
2022-11-29T15:27:04.878Z,86.84
2022-11-29T15:29:50.649Z,86.77
2022-11-29T15:32:37.410Z,87.18
2022-11-29T15:35:23.852Z,86.98
2022-11-29T15:38:18.098Z,86.99
2022-11-29T15:41:03.753Z,87.44
2022-11-29T15:43:57.724Z,87.14
2022-11-29T15:46:43.346Z,87.03
2022-11-29T15:49:30.672Z,86.95
2022-11-29T15:52:28.883Z,86.88
2022-11-29T15:55:14.601Z,86.89
2022-11-29T15:58:08.508Z,87.14
2022-11-29T16:00:55.777Z,86.75
2022-11-29T16:03:46.485Z,87.31
2022-11-29T16:06:41.605Z,87.00
2022-11-29T16:09:37.809Z,87.29
2022-11-29T16:12:23.027Z,86.75
2022-11-29T16:15:26.396Z,87.02
2022-11-29T16:18:16.878Z,87.43
2022-11-29T16:21:06.111Z,87.07
2022-11-29T16:23:51.938Z,86.91
2022-11-29T16:26:41.848Z,87.04
2022-11-29T16:29:30.508Z,87.02
2022-11-29T16:32:24.371Z,87.01
2022-11-29T16:35:15.000Z,87.06
2022-11-29T16:38:04.593Z,87.39
2022-11-29T16:41:07.664Z,86.73
2022-11-29T16:43:58.306Z,87.03
2022-11-29T16:46:43.737Z,87.09
2022-11-29T16:49:36.280Z,87.14
2022-11-29T16:52:30.422Z,86.89
2022-11-29T16:55:17.718Z,87.01
2022-11-29T16:58:04.369Z,87.15
2022-11-29T17:00:49.984Z,87.03
2022-11-29T17:03:35.831Z,86.96
2022-11-29T17:06:23.398Z,87.05
2022-11-29T17:09:19.732Z,86.78
2022-11-29T17:12:05.133Z,87.04
2022-11-29T17:14:50.544Z,87.05
2022-11-29T17:17:36.321Z,86.71
2022-11-29T17:20:21.804Z,86.67
2022-11-29T17:23:09.114Z,86.96
2022-11-29T17:25:59.000Z,86.71
2022-11-29T17:28:46.351Z,86.68
2022-11-29T17:31:32.029Z,86.82
2022-11-29T17:34:17.708Z,87.13
2022-11-29T17:37:03.308Z,86.94
2022-11-29T17:39:49.520Z,87.06
2022-11-29T17:42:35.067Z,87.27
2022-11-29T17:45:20.615Z,86.78
2022-11-29T17:48:06.184Z,86.78
2022-11-29T17:50:51.819Z,86.80
2022-11-29T17:53:37.072Z,86.66
2022-11-29T17:56:25.092Z,86.65
2022-11-29T17:59:10.776Z,86.68
2022-11-29T18:01:56.601Z,87.09
2022-11-29T18:04:44.000Z,87.00
2022-11-29T18:07:29.188Z,86.89
2022-11-29T18:10:14.775Z,86.89
2022-11-29T18:13:00.125Z,87.02
2022-11-29T18:15:45.578Z,86.93
2022-11-29T18:18:31.555Z,86.65
2022-11-29T18:21:19.965Z,86.66
2022-11-29T18:24:07.152Z,87.43
2022-11-29T18:26:52.923Z,86.93
2022-11-29T18:29:39.467Z,87.14
2022-11-29T18:32:24.851Z,86.80
2022-11-29T18:35:12.025Z,86.90
2022-11-29T18:38:14.702Z,87.09
2022-11-29T18:41:07.656Z,86.99
2022-11-29T18:44:00.861Z,86.82
2022-11-29T18:46:47.637Z,87.12
2022-11-29T18:49:33.420Z,87.07
2022-11-29T18:52:19.392Z,87.22
2022-11-29T18:55:05.463Z,86.69
2022-11-29T18:57:51.585Z,87.09
2022-11-29T19:00:37.183Z,86.86
2022-11-29T19:03:23.983Z,87.00
2022-11-29T19:06:12.316Z,86.68
2022-11-29T19:09:00.947Z,87.19
2022-11-29T19:11:46.153Z,86.94
2022-11-29T19:14:32.490Z,86.75
2022-11-29T19:17:18.276Z,87.16
2022-11-29T19:20:04.421Z,86.97
2022-11-29T19:22:50.035Z,86.99
2022-11-29T19:25:35.515Z,86.74
2022-11-29T19:28:20.871Z,86.87
2022-11-29T19:31:07.541Z,87.38
2022-11-29T19:33:55.277Z,87.32
2022-11-29T19:36:43.685Z,86.88
2022-11-29T19:39:29.989Z,86.83
2022-11-29T19:42:15.574Z,87.29
2022-11-29T19:45:16.504Z,87.07
2022-11-29T19:48:03.398Z,87.09
2022-11-29T19:50:48.690Z,86.85
2022-11-29T19:53:35.109Z,87.13
2022-11-29T19:56:22.193Z,87.18
2022-11-29T19:59:08.420Z,87.05
2022-11-29T20:01:54.109Z,86.79
2022-11-29T20:04:39.605Z,87.16
2022-11-29T20:07:28.236Z,86.78
2022-11-29T20:10:14.093Z,86.99
2022-11-29T20:12:59.789Z,87.07
2022-11-29T20:15:45.481Z,87.13
2022-11-29T20:18:34.299Z,87.16
2022-11-29T20:21:31.442Z,86.83
2022-11-29T20:24:17.669Z,86.58
2022-11-29T20:27:03.221Z,86.82
2022-11-29T20:29:51.141Z,86.58
2022-11-29T20:32:37.453Z,87.11
2022-11-29T20:35:23.112Z,86.99
2022-11-29T20:38:29.338Z,86.99
2022-11-29T20:41:21.966Z,86.67
2022-11-29T20:44:10.829Z,86.95
2022-11-29T20:46:56.518Z,86.79
2022-11-29T20:49:42.713Z,86.47
2022-11-29T20:52:45.539Z,87.12
2022-11-29T20:55:31.462Z,87.23
2022-11-29T20:58:19.392Z,86.77
2022-11-29T21:01:05.833Z,86.71
2022-11-29T21:03:51.341Z,86.33
2022-11-29T21:06:38.096Z,86.57
2022-11-29T21:09:23.820Z,86.95
2022-11-29T21:12:10.220Z,87.13
2022-11-29T21:14:56.320Z,86.93
2022-11-29T21:17:42.940Z,86.95
2022-11-29T21:20:28.703Z,86.85
2022-11-29T21:23:22.858Z,86.94
2022-11-29T21:26:16.512Z,86.75
2022-11-29T21:29:19.120Z,86.52
2022-11-29T21:32:05.372Z,86.52
2022-11-29T21:34:51.353Z,86.79
2022-11-29T21:37:37.814Z,87.11
2022-11-29T21:40:24.640Z,86.87
2022-11-29T21:43:10.317Z,86.57
2022-11-29T21:45:55.867Z,86.77
2022-11-29T21:48:42.458Z,87.14
2022-11-29T21:51:27.639Z,86.51
2022-11-29T21:54:13.133Z,86.24
2022-11-29T21:56:59.542Z,86.87
2022-11-29T21:59:45.155Z,86.65
2022-11-29T22:02:30.715Z,86.48
2022-11-29T22:05:16.398Z,86.60
2022-11-29T22:08:02.100Z,86.62
2022-11-29T22:10:47.476Z,86.64
2022-11-29T22:13:32.987Z,86.44
2022-11-29T22:16:18.788Z,86.49
2022-11-29T22:19:05.306Z,86.21
2022-11-29T22:21:57.012Z,86.88
2022-11-29T22:24:42.152Z,86.79
2022-11-29T22:27:27.871Z,86.39
2022-11-29T22:30:13.341Z,86.36
2022-11-29T22:32:58.630Z,86.45
2022-11-29T22:35:44.706Z,86.83
2022-11-29T22:38:30.298Z,86.70
2022-11-29T22:41:16.506Z,86.49
2022-11-29T22:44:02.612Z,86.18
2022-11-29T22:46:47.930Z,86.58
2022-11-29T22:49:33.450Z,86.30
2022-11-29T22:52:19.137Z,86.48
2022-11-29T22:55:05.425Z,86.58
2022-11-29T22:57:53.504Z,86.29
2022-11-29T23:00:44.013Z,86.31
2022-11-29T23:03:32.694Z,86.70
2022-11-29T23:06:21.064Z,86.33
2022-11-29T23:09:12.001Z,86.35
2022-11-29T23:11:57.622Z,86.46
2022-11-29T23:14:42.863Z,86.50
2022-11-29T23:17:28.304Z,86.60
2022-11-29T23:20:13.882Z,86.56
2022-11-29T23:22:59.722Z,86.38
2022-11-29T23:25:49.682Z,86.39
2022-11-29T23:28:36.044Z,86.26
2022-11-29T23:31:22.560Z,86.20
2022-11-29T23:34:08.836Z,86.39
2022-11-29T23:36:54.405Z,86.85
2022-11-29T23:39:39.742Z,86.37
2022-11-29T23:42:25.850Z,86.46
2022-11-29T23:45:11.441Z,86.48
2022-11-29T23:47:57.117Z,86.38
2022-11-29T23:50:43.130Z,86.26
2022-11-29T23:53:34.393Z,86.00
2022-11-29T23:56:21.411Z,85.98
2022-11-29T23:59:08.833Z,86.38
